createdAt,value
2018-07-05T00:02:13.573Z,25.90
2018-07-05T00:04:54.022Z,25.90
2018-07-05T00:07:34.544Z,25.90
2018-07-05T00:10:15.581Z,25.90
2018-07-05T00:12:58.760Z,25.90
2018-07-05T00:15:39.284Z,25.90
2018-07-05T00:18:19.916Z,25.90
2018-07-05T00:21:00.311Z,25.90
2018-07-05T00:23:40.933Z,25.90
2018-07-05T00:26:21.831Z,25.90
2018-07-05T00:29:02.142Z,25.90
2018-07-05T00:31:42.569Z,25.80
2018-07-05T00:34:23.438Z,25.80
2018-07-05T00:37:04.183Z,25.80
2018-07-05T00:39:44.230Z,25.80
2018-07-05T00:42:24.571Z,25.80
2018-07-05T00:45:05.086Z,25.80
2018-07-05T00:47:45.938Z,25.80
2018-07-05T00:50:26.090Z,25.80
2018-07-05T00:53:06.373Z,25.80
2018-07-05T00:55:47.013Z,25.80
2018-07-05T00:58:27.239Z,25.80
2018-07-05T01:01:08.044Z,25.80
2018-07-05T01:03:48.691Z,25.80
2018-07-05T01:06:30.422Z,25.80
2018-07-05T01:09:11.377Z,25.80
2018-07-05T01:11:51.929Z,25.80
2018-07-05T01:14:32.405Z,25.80
2018-07-05T01:17:14.546Z,25.80
2018-07-05T01:19:55.195Z,25.80
2018-07-05T01:22:35.862Z,25.70
2018-07-05T01:25:16.996Z,25.70
2018-07-05T01:27:57.692Z,25.80
2018-07-05T01:30:39.479Z,25.80
2018-07-05T01:33:20.232Z,25.70
2018-07-05T01:36:01.120Z,25.70
2018-07-05T01:38:41.606Z,25.70
2018-07-05T01:41:22.501Z,25.70
2018-07-05T01:44:02.826Z,25.70
2018-07-05T01:46:43.379Z,25.70
2018-07-05T01:49:23.410Z,25.70
2018-07-05T01:52:04.556Z,25.70
2018-07-05T01:54:45.382Z,25.70
2018-07-05T01:57:26.125Z,25.70
2018-07-05T02:00:06.716Z,25.70
2018-07-05T02:02:47.039Z,25.70
2018-07-05T02:05:27.457Z,25.70
2018-07-05T02:08:08.126Z,25.70
2018-07-05T02:10:51.365Z,25.60
2018-07-05T02:13:31.566Z,25.70
2018-07-05T02:16:12.852Z,25.60
2018-07-05T02:18:53.129Z,25.70
2018-07-05T02:21:33.486Z,25.60
2018-07-05T02:24:13.708Z,25.60
2018-07-05T02:26:54.401Z,25.60
2018-07-05T02:29:34.849Z,25.60
2018-07-05T02:32:16.565Z,25.60
2018-07-05T02:34:56.806Z,25.60
2018-07-05T02:37:42.922Z,25.60
2018-07-05T02:40:23.209Z,25.60
2018-07-05T02:43:03.403Z,25.60
2018-07-05T02:48:17.439Z,25.60
2018-07-05T02:51:01.163Z,25.60
2018-07-05T02:53:42.034Z,25.60
2018-07-05T02:56:22.476Z,25.60
2018-07-05T02:59:03.896Z,25.60
2018-07-05T03:01:44.264Z,25.60
2018-07-05T03:04:25.204Z,25.60
2018-07-05T03:07:05.626Z,25.60
2018-07-05T03:09:46.046Z,25.60
2018-07-05T03:12:26.112Z,25.60
2018-07-05T03:15:06.564Z,25.60
2018-07-05T03:17:47.060Z,25.60
2018-07-05T03:20:28.321Z,25.60
2018-07-05T03:23:08.343Z,25.60
2018-07-05T03:25:49.041Z,25.60
2018-07-05T03:28:29.543Z,25.60
2018-07-05T03:31:09.756Z,25.60
2018-07-05T03:33:50.867Z,25.60
2018-07-05T03:36:31.236Z,25.70
2018-07-05T03:39:11.158Z,25.70
2018-07-05T03:41:51.725Z,25.70
2018-07-05T03:44:32.210Z,25.70
2018-07-05T03:47:12.237Z,25.70
2018-07-05T03:49:52.241Z,25.70
2018-07-05T03:52:32.338Z,25.60
2018-07-05T03:55:12.360Z,25.70
2018-07-05T03:57:52.237Z,25.70
2018-07-05T04:00:32.151Z,25.70
2018-07-05T04:03:12.623Z,25.70
2018-07-05T04:05:53.189Z,25.70
2018-07-05T04:11:12.800Z,25.70
2018-07-05T04:13:53.143Z,25.70
2018-07-05T04:16:34.761Z,25.70
2018-07-05T04:19:14.643Z,25.70
2018-07-05T04:21:55.997Z,25.70
2018-07-05T04:27:10.429Z,25.70
2018-07-05T04:29:50.315Z,25.70
2018-07-05T04:32:30.867Z,25.70
2018-07-05T04:35:11.100Z,25.70
2018-07-05T04:37:51.318Z,25.80
2018-07-05T04:40:31.423Z,25.70
2018-07-05T04:43:11.398Z,25.80
2018-07-05T04:45:51.651Z,25.80
2018-07-05T04:48:32.487Z,25.80
2018-07-05T04:51:12.482Z,25.70
2018-07-05T04:53:52.308Z,25.70
2018-07-05T04:56:32.343Z,25.70
2018-07-05T04:59:13.538Z,25.70
2018-07-05T05:01:53.329Z,25.70
2018-07-05T05:04:33.674Z,25.70
2018-07-05T05:07:13.680Z,25.70
2018-07-05T05:12:35.771Z,25.70
2018-07-05T05:15:16.193Z,25.80
2018-07-05T05:17:57.905Z,25.80
2018-07-05T05:20:37.632Z,25.80
2018-07-05T05:23:17.293Z,25.80
2018-07-05T05:25:57.829Z,25.80
2018-07-05T05:28:38.342Z,25.80
2018-07-05T05:31:18.230Z,25.80
2018-07-05T05:33:58.441Z,25.80
2018-07-05T05:36:38.811Z,25.80
2018-07-05T05:39:18.870Z,25.80
2018-07-05T05:41:58.811Z,25.80
2018-07-05T05:44:39.345Z,25.80
2018-07-05T05:47:19.269Z,25.80
2018-07-05T05:49:59.680Z,25.80
2018-07-05T05:52:39.573Z,25.80
2018-07-05T05:55:20.138Z,25.80
2018-07-05T05:57:59.927Z,25.80
2018-07-05T06:00:41.000Z,25.80
2018-07-05T06:03:21.142Z,25.80
2018-07-05T06:06:02.381Z,25.80
2018-07-05T06:08:42.286Z,25.80
2018-07-05T06:14:05.479Z,25.80
2018-07-05T06:16:45.295Z,25.80
2018-07-05T06:19:26.710Z,25.80
2018-07-05T06:22:06.712Z,25.80
2018-07-05T06:24:46.612Z,25.80
2018-07-05T06:27:26.476Z,25.80
2018-07-05T06:30:07.299Z,25.80
2018-07-05T06:32:48.021Z,25.80
2018-07-05T06:35:28.864Z,25.80
2018-07-05T06:38:08.825Z,25.80
2018-07-05T06:40:49.167Z,25.80
2018-07-05T06:43:28.900Z,25.80
2018-07-05T06:46:09.609Z,25.80
2018-07-05T06:48:49.591Z,25.80
2018-07-05T06:51:30.079Z,25.80
2018-07-05T06:54:10.564Z,25.80
2018-07-05T06:56:51.227Z,25.80
2018-07-05T06:59:31.441Z,25.80
2018-07-05T07:02:11.794Z,25.90
2018-07-05T07:04:52.332Z,25.90
2018-07-05T07:07:34.702Z,26.00
2018-07-05T07:10:14.579Z,26.00
2018-07-05T07:12:56.678Z,25.90
2018-07-05T07:15:36.995Z,26.00
2018-07-05T07:18:17.076Z,26.00
2018-07-05T07:20:57.742Z,26.00
2018-07-05T07:23:38.097Z,26.00
2018-07-05T07:26:18.174Z,26.00
2018-07-05T07:28:58.266Z,26.00
2018-07-05T07:31:38.607Z,26.00
2018-07-05T07:34:19.397Z,26.00
2018-07-05T07:36:59.511Z,26.00
2018-07-05T07:39:40.187Z,26.10
2018-07-05T07:42:07.792Z,26.00
2018-07-05T07:44:35.454Z,26.10
2018-07-05T07:47:03.350Z,26.10
2018-07-05T07:49:31.000Z,26.10
2018-07-05T07:51:59.188Z,26.10
2018-07-05T07:54:27.142Z,26.10
2018-07-05T07:56:54.773Z,26.20
2018-07-05T07:59:22.549Z,26.20
2018-07-05T08:01:50.556Z,26.20
2018-07-05T08:06:43.873Z,26.30
2018-07-05T08:09:13.515Z,26.40
2018-07-05T08:11:41.409Z,26.40
2018-07-05T08:14:08.949Z,26.50
2018-07-05T08:16:37.441Z,26.50
2018-07-05T08:19:05.210Z,26.60
2018-07-05T08:21:33.149Z,26.60
2018-07-05T08:24:00.452Z,26.60
2018-07-05T08:28:55.410Z,26.70
2018-07-05T08:31:23.573Z,26.70
2018-07-05T08:33:51.157Z,26.80
2018-07-05T08:36:19.047Z,26.80
2018-07-05T08:38:47.124Z,26.80
2018-07-05T08:41:15.003Z,26.80
2018-07-05T08:43:42.947Z,26.80
2018-07-05T08:46:10.621Z,26.90
2018-07-05T08:48:38.329Z,26.90
2018-07-05T08:51:05.986Z,27.00
2018-07-05T08:53:33.942Z,27.00
2018-07-05T08:56:02.174Z,27.00
2018-07-05T08:58:30.230Z,27.00
2018-07-05T09:00:58.605Z,27.10
2018-07-05T09:03:26.597Z,27.10
2018-07-05T09:05:54.522Z,27.10
2018-07-05T09:08:23.616Z,27.10
2018-07-05T09:10:51.494Z,27.10
2018-07-05T09:13:19.767Z,27.10
2018-07-05T09:15:47.923Z,27.10
2018-07-05T09:18:15.981Z,27.10
2018-07-05T09:20:43.713Z,27.10
2018-07-05T09:23:12.501Z,27.10
